Time;durP1;ratioP1;P1;durP2;ratioP2;P2;SDS_P1;SDS_P2;PMS_P1;PMS_P2;Temp;Humidity;BMP_temperature;BMP_pressure;BME280_temperature;BME280_humidity;BME280_pressure;Samples;Min_cycle;Max_cycle;Signal;HPM_P1;HPM_P2
2022/08/29 00:01:20;;;;;;;3.67;3.33;;;27.30;39.00;;;;;;5072241;28;20438;-75
2022/08/29 00:03:49;;;;;;;5.20;3.27;;;27.30;39.00;;;;;;5066025;28;20518;-76
2022/08/29 00:06:18;;;;;;;5.53;3.27;;;27.30;38.90;;;;;;5071907;28;20432;-76
2022/08/29 00:08:46;;;;;;;3.67;3.30;;;27.30;39.00;;;;;;5072398;28;20469;-76
2022/08/29 00:11:14;;;;;;;4.00;3.60;;;27.30;39.10;;;;;;5072220;28;20462;-75
2022/08/29 00:13:41;;;;;;;3.60;3.30;;;27.30;39.10;;;;;;5072229;28;20442;-76
2022/08/29 00:16:09;;;;;;;4.40;4.10;;;27.30;39.10;;;;;;5071961;28;20482;-76
2022/08/29 00:18:37;;;;;;;4.80;4.30;;;27.30;39.00;;;;;;5071253;28;20445;-75
2022/08/29 00:21:06;;;;;;;3.83;3.13;;;27.30;39.00;;;;;;5065716;28;20525;-76
2022/08/29 00:23:35;;;;;;;3.87;3.47;;;27.30;39.10;;;;;;5071516;28;20815;-75
2022/08/29 00:26:03;;;;;;;4.13;3.60;;;27.30;39.00;;;;;;5071891;28;20447;-76
2022/08/29 00:28:31;;;;;;;4.43;4.03;;;27.30;39.00;;;;;;5071605;28;20419;-75
2022/08/29 00:30:58;;;;;;;6.40;3.90;;;27.30;39.10;;;;;;5071868;28;20498;-76
2022/08/29 00:33:26;;;;;;;4.90;4.40;;;27.30;39.10;;;;;;5071405;28;20410;-76
2022/08/29 00:35:54;;;;;;;4.70;4.30;;;27.30;39.10;;;;;;5070655;28;20454;-76
2022/08/29 00:38:23;;;;;;;4.10;3.80;;;27.30;39.10;;;;;;5071654;28;20458;-76
2022/08/29 00:40:56;;;;;;;5.13;4.10;;;27.30;39.20;;;;;;5071518;28;20401;-76
2022/08/29 00:43:25;;;;;;;4.20;3.80;;;27.30;39.10;;;;;;5071537;28;20406;-76
2022/08/29 00:45:57;;;;;;;4.53;4.13;;;27.30;39.20;;;;;;5071469;28;20454;-74
2022/08/29 00:48:26;;;;;;;4.80;4.40;;;27.30;39.20;;;;;;5071396;28;20443;-75
2022/08/29 00:50:54;;;;;;;5.27;4.77;;;27.30;39.20;;;;;;5071939;28;20448;-75
2022/08/29 00:53:24;;;;;;;5.00;4.33;;;27.30;39.20;;;;;;5054247;28;20454;-76
2022/08/29 00:55:53;;;;;;;5.93;5.30;;;27.30;39.10;;;;;;5066680;28;20432;-75
2022/08/29 00:58:26;;;;;;;5.00;4.60;;;27.30;39.20;;;;;;5071362;28;20497;-75
2022/08/29 01:00:54;;;;;;;5.17;4.67;;;27.30;39.20;;;;;;5071430;28;20436;-76
2022/08/29 01:03:22;;;;;;;5.00;4.40;;;27.20;39.20;;;;;;5071469;28;20408;-76
2022/08/29 01:05:50;;;;;;;6.23;4.97;;;27.30;39.30;;;;;;5071428;28;20682;-76
2022/08/29 01:08:17;;;;;;;5.20;4.77;;;27.30;39.30;;;;;;5070732;28;20949;-76
2022/08/29 01:13:36;;;;;;;6.23;5.43;;;27.20;39.20;;;;;;5071553;28;20416;-76
2022/08/29 01:16:04;;;;;;;8.13;5.60;;;27.20;39.40;;;;;;5071305;28;20547;-76
2022/08/29 01:18:32;;;;;;;6.30;5.10;;;27.20;39.40;;;;;;5071223;28;20456;-76
2022/08/29 01:21:04;;;;;;;6.10;5.00;;;27.20;39.30;;;;;;5071674;28;20442;-76
2022/08/29 01:23:33;;;;;;;6.70;5.10;;;27.20;39.40;;;;;;5071274;28;20420;-77
2022/08/29 01:26:02;;;;;;;7.23;5.50;;;27.20;39.40;;;;;;5068126;28;20435;-77
2022/08/29 01:28:31;;;;;;;6.83;6.13;;;27.20;39.40;;;;;;5069998;28;20516;-76
2022/08/29 01:31:01;;;;;;;6.40;5.80;;;27.20;39.40;;;;;;5074973;28;20481;-76
2022/08/29 01:33:37;;;;;;;6.73;6.03;;;27.20;39.40;;;;;;5075202;28;20450;-76
2022/08/29 01:36:06;;;;;;;7.03;6.07;;;27.10;39.40;;;;;;5075327;28;20898;-76
2022/08/29 01:38:33;;;;;;;6.83;6.17;;;27.10;39.40;;;;;;5075033;28;20424;-76
2022/08/29 01:41:03;;;;;;;6.37;5.87;;;27.10;39.60;;;;;;5074902;28;20419;-76
2022/08/29 01:43:31;;;;;;;6.10;5.60;;;27.10;39.50;;;;;;5073656;28;20434;-76
2022/08/29 01:45:59;;;;;;;8.00;6.93;;;27.10;39.40;;;;;;5074594;28;20440;-75
2022/08/29 01:48:27;;;;;;;7.60;6.50;;;27.10;39.40;;;;;;5074653;28;20419;-76
2022/08/29 01:50:54;;;;;;;8.10;6.77;;;27.10;39.40;;;;;;5079494;28;20535;-77
2022/08/29 01:53:23;;;;;;;7.80;6.30;;;27.10;39.40;;;;;;5081640;28;20453;-77
2022/08/29 01:55:50;;;;;;;7.13;6.37;;;27.10;39.60;;;;;;5081441;28;20464;-77
2022/08/29 01:58:20;;;;;;;10.40;7.13;;;27.00;39.50;;;;;;5079331;28;20426;-77
2022/08/29 02:00:48;;;;;;;8.37;6.90;;;27.10;39.50;;;;;;5081595;28;20441;-77
2022/08/29 02:03:17;;;;;;;9.30;7.43;;;27.10;40.20;;;;;;5081707;28;20445;-78
2022/08/29 02:05:47;;;;;;;8.00;7.20;;;27.00;39.60;;;;;;5080735;28;20523;-75
2022/08/29 02:08:15;;;;;;;8.17;7.40;;;27.00;39.60;;;;;;5081033;28;20504;-75
2022/08/29 02:10:43;;;;;;;9.57;7.20;;;27.00;39.60;;;;;;5076353;28;20527;-76
2022/08/29 02:13:12;;;;;;;10.27;8.30;;;27.00;39.70;;;;;;5080984;28;20498;-76
2022/08/29 02:15:41;;;;;;;8.03;7.00;;;27.00;39.70;;;;;;5078842;28;20469;-76
2022/08/29 02:18:09;;;;;;;8.83;7.70;;;27.00;39.70;;;;;;5075898;28;20507;-76
2022/08/29 02:20:37;;;;;;;7.90;7.10;;;27.00;39.70;;;;;;5081069;28;20416;-76
2022/08/29 02:23:05;;;;;;;7.73;7.00;;;26.90;40.30;;;;;;5081149;28;20503;-77
2022/08/29 02:25:53;;;;;;;9.77;8.50;;;26.90;39.60;;;;;;5080780;28;20423;-77
2022/08/29 02:28:21;;;;;;;9.50;8.50;;;26.90;39.70;;;;;;5080453;28;20508;-77
2022/08/29 02:30:52;;;;;;;8.33;7.40;;;26.90;39.60;;;;;;5081196;28;20469;-77
2022/08/29 02:33:23;;;;;;;9.33;8.30;;;26.90;39.70;;;;;;5077068;28;20412;-76
2022/08/29 02:35:52;;;;;;;10.67;9.10;;;26.90;39.70;;;;;;5078920;28;20443;-76
2022/08/29 02:38:20;;;;;;;9.67;8.67;;;26.90;39.60;;;;;;5078910;28;20532;-77
2022/08/29 02:40:48;;;;;;;11.10;9.07;;;26.90;39.70;;;;;;5078031;28;20496;-76
2022/08/29 02:43:18;;;;;;;10.07;9.00;;;26.90;39.80;;;;;;5078689;28;20424;-76
2022/08/29 02:45:46;;;;;;;11.00;8.60;;;26.90;40.30;;;;;;5079538;28;20468;-77
2022/08/29 02:48:15;;;;;;;10.60;8.87;;;26.90;39.70;;;;;;5072888;28;20516;-76
2022/08/29 02:50:44;;;;;;;9.60;8.63;;;26.90;39.70;;;;;;5070735;28;20450;-76
2022/08/29 02:53:12;;;;;;;10.33;9.20;;;26.90;39.70;;;;;;5080886;28;20510;-77
2022/08/29 02:55:40;;;;;;;9.70;8.70;;;26.90;39.70;;;;;;5080731;28;20461;-75
2022/08/29 02:58:08;;;;;;;10.20;9.10;;;26.90;39.80;;;;;;5079464;28;20445;-76
2022/08/29 03:00:36;;;;;;;11.23;10.03;;;26.90;39.80;;;;;;5080445;28;20505;-76
2022/08/29 03:03:04;;;;;;;15.07;12.00;;;26.90;39.80;;;;;;5080532;28;20461;-76
2022/08/29 03:05:35;;;;;;;12.33;10.67;;;26.90;39.80;;;;;;5079564;28;20516;-77
2022/08/29 03:08:05;;;;;;;16.37;12.50;;;26.90;39.80;;;;;;5080098;28;20499;-77
2022/08/29 03:10:33;;;;;;;13.30;11.70;;;26.90;39.90;;;;;;5079737;28;20523;-77
2022/08/29 03:13:01;;;;;;;16.17;13.03;;;26.90;40.00;;;;;;5080112;28;20448;-76
2022/08/29 03:15:29;;;;;;;16.23;12.60;;;26.90;40.00;;;;;;5079748;28;20601;-77
2022/08/29 03:17:57;;;;;;;15.97;13.70;;;26.90;40.00;;;;;;5079743;28;20498;-76
2022/08/29 03:20:25;;;;;;;16.73;13.90;;;26.90;39.90;;;;;;5069881;28;20520;-76
2022/08/29 03:22:55;;;;;;;19.17;14.60;;;26.90;39.90;;;;;;5072829;28;20444;-76
2022/08/29 03:25:23;;;;;;;14.07;12.57;;;26.90;39.90;;;;;;5079845;28;20531;-76
2022/08/29 03:27:51;;;;;;;17.13;13.63;;;26.90;39.90;;;;;;5080025;28;20484;-77
2022/08/29 03:30:19;;;;;;;17.03;14.10;;;26.80;39.90;;;;;;5079806;28;20438;-77
2022/08/29 03:32:50;;;;;;;16.80;14.23;;;26.90;40.00;;;;;;5080383;28;20430;-76
2022/08/29 03:35:18;;;;;;;16.70;14.30;;;26.80;40.00;;;;;;5079966;28;20552;-76
2022/08/29 03:37:46;;;;;;;16.23;14.37;;;26.90;40.20;;;;;;5078611;28;20507;-77
2022/08/29 03:40:16;;;;;;;17.77;13.70;;;26.80;40.10;;;;;;5079938;28;20511;-77
2022/08/29 03:42:44;;;;;;;17.87;14.67;;;26.80;40.10;;;;;;5079848;28;20430;-77
2022/08/29 03:45:14;;;;;;;17.00;13.63;;;26.80;40.20;;;;;;5078824;28;20551;-77
2022/08/29 03:47:42;;;;;;;16.93;13.80;;;26.80;40.20;;;;;;5079670;28;20475;-77
2022/08/29 03:50:10;;;;;;;17.40;13.87;;;26.80;40.20;;;;;;5079454;28;20446;-77
2022/08/29 03:52:41;;;;;;;20.13;14.63;;;26.80;40.20;;;;;;5076695;28;20478;-77
2022/08/29 03:55:10;;;;;;;16.30;13.67;;;26.80;40.20;;;;;;5079353;28;20517;-77
2022/08/29 03:57:39;;;;;;;18.07;13.27;;;26.80;40.20;;;;;;5079021;28;20445;-77
2022/08/29 04:00:10;;;;;;;16.00;13.53;;;26.80;40.20;;;;;;5079212;28;20462;-77
2022/08/29 04:02:38;;;;;;;17.80;14.90;;;26.80;40.20;;;;;;5077139;28;20816;-77
2022/08/29 04:05:07;;;;;;;15.90;12.97;;;26.80;41.00;;;;;;5076430;28;20448;-77
2022/08/29 04:07:48;;;;;;;18.27;14.80;;;26.80;40.20;;;;;;5075747;28;20417;-77
2022/08/29 04:10:19;;;;;;;15.83;13.87;;;26.90;40.20;;;;;;5070994;28;20529;-77
2022/08/29 04:12:48;;;;;;;15.93;13.00;;;26.90;40.30;;;;;;5068636;28;20917;-77
2022/08/29 04:15:21;;;;;;;15.27;12.30;;;26.90;40.30;;;;;;5076137;28;21029;-77
2022/08/29 04:17:50;;;;;;;14.77;13.20;;;26.80;40.20;;;;;;5075838;28;20541;-77
2022/08/29 04:20:20;;;;;;;15.30;13.30;;;26.80;40.40;;;;;;5077431;28;20428;-76
2022/08/29 04:22:52;;;;;;;16.30;12.80;;;26.90;40.50;;;;;;5078621;28;20453;-77
2022/08/29 04:25:21;;;;;;;16.70;13.13;;;26.90;40.40;;;;;;5075510;28;20448;-77
2022/08/29 04:27:50;;;;;;;14.60;12.93;;;26.90;40.40;;;;;;5078671;28;20414;-77
2022/08/29 04:30:19;;;;;;;16.13;12.07;;;26.90;40.30;;;;;;5078933;28;20504;-77
2022/08/29 04:32:47;;;;;;;14.63;12.20;;;26.90;40.40;;;;;;5078312;28;20533;-77
2022/08/29 04:35:15;;;;;;;13.77;12.20;;;26.90;40.40;;;;;;5078338;28;20448;-77
2022/08/29 04:37:43;;;;;;;16.10;12.17;;;26.90;40.40;;;;;;5079393;28;20487;-77
2022/08/29 04:40:14;;;;;;;12.40;11.07;;;26.90;40.50;;;;;;5075992;28;20464;-77
2022/08/29 04:42:42;;;;;;;15.47;12.47;;;26.90;40.50;;;;;;5078985;28;20413;-75
2022/08/29 04:45:13;;;;;;;13.60;11.10;;;26.90;40.60;;;;;;5078466;28;20558;-75
2022/08/29 04:47:42;;;;;;;13.30;10.77;;;26.90;40.60;;;;;;5078294;28;20414;-75
2022/08/29 04:50:13;;;;;;;12.37;10.50;;;26.80;40.60;;;;;;5078949;28;20517;-76
2022/08/29 04:52:41;;;;;;;11.63;10.43;;;26.90;40.80;;;;;;5078705;28;20455;-76
2022/08/29 04:55:10;;;;;;;13.13;10.33;;;26.90;40.80;;;;;;5078748;28;20515;-76
2022/08/29 04:57:38;;;;;;;12.67;10.53;;;26.90;40.70;;;;;;5071973;28;20435;-76
2022/08/29 05:00:09;;;;;;;15.20;9.83;;;26.90;40.80;;;;;;5078530;28;20890;-76
2022/08/29 05:02:38;;;;;;;11.23;9.87;;;26.90;40.80;;;;;;5078617;28;20469;-76
2022/08/29 05:05:07;;;;;;;10.10;9.00;;;26.90;40.90;;;;;;5081416;28;20449;-77
2022/08/29 05:07:35;;;;;;;9.57;8.67;;;26.90;41.00;;;;;;5082896;28;20544;-76
2022/08/29 05:10:08;;;;;;;10.03;8.67;;;26.90;41.00;;;;;;5082891;28;20408;-77
2022/08/29 05:12:36;;;;;;;9.80;8.37;;;26.90;40.90;;;;;;5081372;28;20444;-76
2022/08/29 05:15:04;;;;;;;11.47;9.67;;;26.90;40.90;;;;;;5078519;28;20497;-76
2022/08/29 05:17:32;;;;;;;12.57;9.30;;;26.90;41.00;;;;;;5080297;28;20512;-76
2022/08/29 05:20:03;;;;;;;9.30;7.93;;;26.90;41.00;;;;;;5080289;28;20441;-76
2022/08/29 05:22:31;;;;;;;10.20;8.60;;;26.90;41.00;;;;;;5079725;28;20452;-76
2022/08/29 05:24:59;;;;;;;12.20;8.20;;;26.90;41.00;;;;;;5079992;28;20890;-76
2022/08/29 05:27:27;;;;;;;9.03;7.50;;;26.90;41.00;;;;;;5079141;28;20490;-77
2022/08/29 05:29:55;;;;;;;8.50;7.43;;;26.90;41.00;;;;;;5079052;28;20466;-76
2022/08/29 05:32:23;;;;;;;7.77;6.73;;;26.90;41.00;;;;;;5077441;28;20465;-76
2022/08/29 05:34:51;;;;;;;8.10;7.30;;;26.90;41.10;;;;;;5078954;28;20428;-76
2022/08/29 05:37:21;;;;;;;8.27;7.10;;;26.90;41.20;;;;;;5079486;28;20517;-76
2022/08/29 05:39:49;;;;;;;7.40;6.70;;;26.90;41.10;;;;;;5079617;28;20430;-77
2022/08/29 05:42:18;;;;;;;10.93;7.47;;;26.90;41.10;;;;;;5078652;28;20444;-76
2022/08/29 05:44:46;;;;;;;7.07;6.47;;;26.90;41.10;;;;;;5081596;28;20477;-76
2022/08/29 05:47:15;;;;;;;8.20;6.33;;;27.00;41.70;;;;;;5076919;28;20425;-77
2022/08/29 05:49:43;;;;;;;12.77;6.83;;;27.00;41.10;;;;;;5081842;28;20499;-77
2022/08/29 05:52:12;;;;;;;7.70;6.90;;;26.90;41.10;;;;;;5081671;28;20507;-77
2022/08/29 05:54:41;;;;;;;6.33;5.73;;;27.00;41.20;;;;;;5079784;28;20436;-77
2022/08/29 05:57:10;;;;;;;8.80;6.07;;;27.00;41.20;;;;;;5078640;28;20445;-77
2022/08/29 05:59:45;;;;;;;7.17;6.47;;;27.00;41.20;;;;;;5078305;28;20452;-77
2022/08/29 06:02:13;;;;;;;6.53;5.83;;;27.00;41.20;;;;;;5073515;28;20429;-76
2022/08/29 06:04:41;;;;;;;10.03;6.10;;;27.00;41.10;;;;;;5076874;28;20486;-76
2022/08/29 06:07:09;;;;;;;6.10;5.50;;;27.00;41.20;;;;;;5078198;28;20465;-76
2022/08/29 06:09:38;;;;;;;8.10;6.00;;;27.00;41.20;;;;;;5077395;28;20434;-75
2022/08/29 06:12:08;;;;;;;5.57;5.07;;;27.00;41.20;;;;;;5077125;28;20564;-75
2022/08/29 06:14:36;;;;;;;7.10;5.77;;;27.00;41.20;;;;;;5076951;28;20523;-75
2022/08/29 06:17:04;;;;;;;5.97;5.37;;;27.10;41.30;;;;;;5076354;28;20495;-76
2022/08/29 06:19:34;;;;;;;6.27;4.70;;;27.10;41.30;;;;;;5071286;28;20504;-75
2022/08/29 06:22:03;;;;;;;5.67;5.17;;;27.10;41.30;;;;;;5077008;28;20432;-76
2022/08/29 06:24:37;;;;;;;5.70;5.10;;;27.10;41.30;;;;;;5077630;28;20505;-76
2022/08/29 06:27:06;;;;;;;7.13;5.47;;;27.10;41.30;;;;;;5077104;28;20537;-75
2022/08/29 06:29:34;;;;;;;5.87;5.27;;;27.10;41.30;;;;;;5076992;28;20473;-76
2022/08/29 06:32:10;;;;;;;8.47;5.50;;;27.10;41.30;;;;;;5076588;28;20450;-76
2022/08/29 06:34:38;;;;;;;5.43;4.93;;;27.10;41.20;;;;;;5072995;28;20557;-76
2022/08/29 06:37:06;;;;;;;5.20;4.70;;;27.10;41.30;;;;;;5083410;28;20467;-77
2022/08/29 06:39:34;;;;;;;5.43;4.57;;;27.10;41.30;;;;;;5082422;28;20451;-76
2022/08/29 06:42:02;;;;;;;5.60;4.90;;;27.20;41.40;;;;;;5081051;28;20488;-76
2022/08/29 06:44:32;;;;;;;5.53;4.47;;;27.20;41.40;;;;;;5081081;28;20505;-76
2022/08/29 06:47:00;;;;;;;5.40;4.90;;;27.20;41.50;;;;;;5081296;28;20499;-76
2022/08/29 06:49:28;;;;;;;7.80;4.40;;;27.20;41.60;;;;;;5081231;28;20426;-75
2022/08/29 06:51:56;;;;;;;4.67;4.23;;;27.20;42.10;;;;;;5075844;28;20513;-76
2022/08/29 06:54:26;;;;;;;5.33;4.83;;;27.20;41.50;;;;;;5080295;28;20535;-76
2022/08/29 06:56:55;;;;;;;8.03;4.73;;;27.20;41.50;;;;;;5080195;28;20420;-76
2022/08/29 06:59:23;;;;;;;5.77;5.17;;;27.20;41.40;;;;;;5080129;28;20507;-76
2022/08/29 07:01:53;;;;;;;4.40;4.00;;;27.30;41.50;;;;;;5080056;28;20508;-76
2022/08/29 07:04:22;;;;;;;5.37;4.80;;;27.30;41.50;;;;;;5080345;28;20439;-77
2022/08/29 07:06:53;;;;;;;6.20;4.43;;;27.20;41.50;;;;;;5079257;28;20458;-76
2022/08/29 07:09:21;;;;;;;5.57;4.40;;;27.30;41.50;;;;;;5079822;28;20499;-76
2022/08/29 07:11:49;;;;;;;5.73;4.57;;;27.30;41.50;;;;;;5079624;28;20455;-76
2022/08/29 07:14:17;;;;;;;4.67;3.93;;;27.30;41.60;;;;;;5079023;28;20458;-76
2022/08/29 07:16:45;;;;;;;6.10;4.20;;;27.30;41.60;;;;;;5079141;28;20534;-76
2022/08/29 07:19:14;;;;;;;5.27;4.30;;;27.30;41.60;;;;;;5080363;28;20503;-77
2022/08/29 07:21:42;;;;;;;4.60;4.13;;;27.30;41.40;;;;;;5080900;28;20428;-77
2022/08/29 07:24:10;;;;;;;4.20;3.80;;;27.30;41.50;;;;;;5074163;28;20451;-76
2022/08/29 07:26:41;;;;;;;4.50;4.10;;;27.40;41.60;;;;;;5078774;28;20541;-76
2022/08/29 07:29:10;;;;;;;5.33;3.87;;;27.40;41.60;;;;;;5079782;28;20476;-76
2022/08/29 07:31:38;;;;;;;3.73;3.50;;;27.40;41.60;;;;;;5080372;28;20511;-77
2022/08/29 07:34:06;;;;;;;4.00;3.70;;;27.40;41.60;;;;;;5079096;28;20556;-77
2022/08/29 07:36:36;;;;;;;4.67;4.20;;;27.40;41.60;;;;;;5080263;28;20507;-77
2022/08/29 07:39:05;;;;;;;4.83;3.80;;;27.40;41.60;;;;;;5079914;28;20482;-76
2022/08/29 07:41:33;;;;;;;4.87;3.80;;;27.40;41.60;;;;;;5076084;28;20443;-77
2022/08/29 07:44:01;;;;;;;6.07;3.97;;;27.40;42.10;;;;;;5079684;28;20457;-76
2022/08/29 07:46:30;;;;;;;4.90;3.93;;;27.50;41.70;;;;;;5079689;28;20465;-76
2022/08/29 07:48:58;;;;;;;3.93;3.63;;;27.50;41.70;;;;;;5079701;28;20563;-76
2022/08/29 07:51:26;;;;;;;3.73;3.43;;;27.50;41.60;;;;;;5079443;28;20481;-77
2022/08/29 07:53:56;;;;;;;3.90;3.50;;;27.50;41.60;;;;;;5079624;28;20505;-76
2022/08/29 07:56:25;;;;;;;3.83;3.47;;;27.50;41.70;;;;;;5079843;28;20479;-77
2022/08/29 07:58:54;;;;;;;3.90;3.20;;;27.60;41.60;;;;;;5079035;28;20441;-76
2022/08/29 08:01:22;;;;;;;6.83;3.40;;;27.60;41.60;;;;;;5074319;28;20429;-76
2022/08/29 08:03:50;;;;;;;8.80;3.43;;;27.70;41.50;;;;;;5078244;28;20445;-77
2022/08/29 08:06:18;;;;;;;4.00;3.67;;;27.80;41.40;;;;;;5078864;28;20478;-77
2022/08/29 08:08:46;;;;;;;3.90;3.17;;;27.80;41.40;;;;;;5079483;28;20473;-77
2022/08/29 08:11:15;;;;;;;4.13;3.77;;;27.80;41.40;;;;;;5080080;28;20468;-77
2022/08/29 08:13:43;;;;;;;3.93;3.53;;;27.80;41.40;;;;;;5078987;28;20533;-77
2022/08/29 08:16:12;;;;;;;3.27;3.00;;;27.80;41.40;;;;;;5077411;28;20493;-76
2022/08/29 08:18:41;;;;;;;3.70;3.40;;;27.90;41.40;;;;;;5076225;28;20455;-77
2022/08/29 08:21:09;;;;;;;3.63;3.33;;;27.90;41.40;;;;;;5076934;28;21010;-77
2022/08/29 08:23:37;;;;;;;3.63;3.33;;;27.90;41.40;;;;;;5079079;28;20812;-77
2022/08/29 08:26:05;;;;;;;4.03;3.63;;;27.90;41.40;;;;;;5077482;28;20467;-76
2022/08/29 08:28:34;;;;;;;3.47;3.13;;;27.90;41.40;;;;;;5079078;28;20503;-76
2022/08/29 08:31:04;;;;;;;5.60;3.50;;;27.90;41.40;;;;;;5079473;28;20449;-76
2022/08/29 08:33:33;;;;;;;3.83;3.43;;;27.90;41.40;;;;;;5072399;28;20498;-76
2022/08/29 08:36:02;;;;;;;5.43;3.77;;;27.90;41.50;;;;;;5078917;28;21018;-77
2022/08/29 08:38:30;;;;;;;3.70;3.40;;;27.90;41.60;;;;;;5078500;28;20515;-76
2022/08/29 08:41:02;;;;;;;4.47;3.30;;;27.90;41.60;;;;;;5079165;28;20451;-76
2022/08/29 08:43:39;;;;;;;3.57;3.30;;;27.90;41.60;;;;;;5079008;28;20444;-78
2022/08/29 08:46:07;;;;;;;3.97;2.90;;;27.90;41.60;;;;;;5078879;28;20515;-77
2022/08/29 08:48:36;;;;;;;5.80;3.83;;;27.90;41.70;;;;;;5076189;28;20412;-79
2022/08/29 08:51:06;;;;;;;4.50;3.30;;;27.90;41.60;;;;;;5074859;28;20468;-78
2022/08/29 08:53:35;;;;;;;3.53;3.20;;;27.90;41.70;;;;;;5078665;28;20527;-78
2022/08/29 08:56:07;;;;;;;3.37;3.07;;;28.00;41.70;;;;;;5080438;28;20432;-78
2022/08/29 08:58:41;;;;;;;4.43;3.47;;;28.00;41.70;;;;;;5080382;28;20541;-77
2022/08/29 09:01:14;;;;;;;6.53;2.80;;;28.10;41.90;;;;;;5079163;28;21046;-78
2022/08/29 09:04:03;;;;;;;6.37;3.00;;;28.10;41.80;;;;;;5069605;28;20420;-78
2022/08/29 09:06:39;;;;;;;6.07;3.50;;;28.10;42.10;;;;;;5058615;28;20429;-78
2022/08/29 09:09:14;;;;;;;4.63;3.20;;;28.10;42.80;;;;;;5073067;28;20533;-78
2022/08/29 09:11:47;;;;;;;6.43;3.23;;;28.20;43.30;;;;;;5075511;28;20443;-78
2022/08/29 09:14:36;;;;;;;11.80;3.10;;;28.20;43.20;;;;;;5076339;28;20531;-76
2022/08/29 09:17:05;;;;;;;7.93;3.83;;;28.30;43.30;;;;;;5076654;28;20437;-77
2022/08/29 09:19:33;;;;;;;4.40;3.10;;;28.30;43.30;;;;;;5074897;28;20420;-78
2022/08/29 09:22:08;;;;;;;7.50;3.17;;;28.30;43.30;;;;;;5074796;28;20510;-78
2022/08/29 09:24:38;;;;;;;8.93;3.30;;;28.30;43.20;;;;;;5071823;28;20465;-74
2022/08/29 09:27:07;;;;;;;5.37;2.90;;;28.40;43.30;;;;;;5071700;28;20423;-75
2022/08/29 09:29:37;;;;;;;5.03;3.37;;;28.40;43.30;;;;;;5071738;28;20534;-75
2022/08/29 09:32:07;;;;;;;14.90;3.00;;;28.40;43.30;;;;;;5071550;28;20456;-75
2022/08/29 09:34:36;;;;;;;5.20;2.80;;;28.40;43.30;;;;;;5071117;28;20440;-75
2022/08/29 09:37:25;;;;;;;3.03;2.73;;;28.50;43.40;;;;;;5069571;28;20457;-75
2022/08/29 09:39:57;;;;;;;4.43;2.87;;;28.50;43.50;;;;;;5071564;28;20407;-75
2022/08/29 09:42:30;;;;;;;7.43;3.17;;;28.50;43.60;;;;;;5071724;28;20864;-76
2022/08/29 09:45:08;;;;;;;4.77;2.80;;;28.60;43.60;;;;;;5071759;28;20435;-75
2022/08/29 09:47:36;;;;;;;4.60;2.77;;;28.60;43.50;;;;;;5070304;28;20457;-75
2022/08/29 09:50:08;;;;;;;3.77;2.83;;;28.70;43.50;;;;;;5072391;28;20424;-74
2022/08/29 09:52:37;;;;;;;5.43;2.47;;;28.80;43.60;;;;;;5073592;28;20464;-75
2022/08/29 09:55:28;;;;;;;3.33;2.40;;;28.80;43.40;;;;;;5074594;28;20472;-75
2022/08/29 09:57:57;;;;;;;5.23;2.63;;;28.80;43.30;;;;;;5074002;28;20425;-75
2022/08/29 10:00:28;;;;;;;8.20;2.83;;;29.00;43.30;;;;;;5074711;28;20424;-76
2022/08/29 10:02:57;;;;;;;2.50;2.30;;;29.10;43.10;;;;;;5075248;28;20553;-75
2022/08/29 10:05:40;;;;;;;4.77;2.57;;;29.30;42.90;;;;;;5074434;28;20999;-75
2022/08/29 10:08:28;;;;;;;2.83;2.47;;;29.40;42.60;;;;;;5074091;28;20811;-74
2022/08/29 10:11:01;;;;;;;2.90;2.70;;;29.50;42.30;;;;;;5067071;28;20537;-75
2022/08/29 10:13:34;;;;;;;2.87;2.50;;;29.50;43.00;;;;;;5074991;28;20411;-74
2022/08/29 10:16:11;;;;;;;3.80;2.70;;;29.40;42.40;;;;;;5074202;28;20477;-75
2022/08/29 10:18:43;;;;;;;4.37;1.97;;;29.30;42.50;;;;;;5059417;28;20448;-75
2022/08/29 10:21:19;;;;;;;3.17;2.10;;;29.30;42.60;;;;;;5074708;28;20440;-76
2022/08/29 10:24:00;;;;;;;3.10;2.33;;;29.20;42.70;;;;;;5074711;28;20439;-75
2022/08/29 10:26:32;;;;;;;4.57;2.43;;;29.20;42.90;;;;;;5068288;28;20438;-73
2022/08/29 10:29:04;;;;;;;4.10;2.50;;;29.20;43.10;;;;;;5072691;28;20434;-75
2022/08/29 10:31:37;;;;;;;4.33;1.80;;;29.20;43.10;;;;;;5055329;28;20526;-74
2022/08/29 10:34:16;;;;;;;3.20;2.00;;;29.10;43.10;;;;;;5067243;28;20464;-75
2022/08/29 10:36:46;;;;;;;4.47;2.67;;;29.20;43.00;;;;;;5066603;28;20515;-76
2022/08/29 10:39:16;;;;;;;2.77;2.47;;;29.10;43.00;;;;;;5074705;28;20445;-75
2022/08/29 10:41:51;;;;;;;2.20;2.00;;;29.20;43.00;;;;;;5073371;28;20449;-75
2022/08/29 10:44:27;;;;;;;2.60;2.40;;;29.10;43.00;;;;;;5073132;28;20447;-75
2022/08/29 10:47:05;;;;;;;3.10;2.10;;;29.10;43.00;;;;;;5074339;28;20499;-75
2022/08/29 10:49:44;;;;;;;2.40;1.90;;;29.10;43.00;;;;;;5054234;28;20438;-76
2022/08/29 10:52:14;;;;;;;3.10;2.40;;;29.10;42.80;;;;;;5059784;28;20452;-76
2022/08/29 10:54:50;;;;;;;3.57;2.20;;;29.10;42.80;;;;;;5073286;28;20443;-76
2022/08/29 10:57:21;;;;;;;2.47;2.13;;;29.20;43.10;;;;;;5072693;28;20480;-74
2022/08/29 10:59:53;;;;;;;3.10;2.17;;;29.20;43.20;;;;;;5071435;28;20860;-75
2022/08/29 11:02:27;;;;;;;3.00;1.87;;;29.20;43.40;;;;;;5072712;28;20456;-75
2022/08/29 11:04:56;;;;;;;1.90;1.80;;;29.30;43.30;;;;;;5073409;28;20529;-74
2022/08/29 11:07:28;;;;;;;6.27;2.40;;;29.30;43.30;;;;;;5073361;28;20416;-74
2022/08/29 11:09:57;;;;;;;4.50;1.80;;;29.30;43.40;;;;;;5066993;28;20444;-74
2022/08/29 11:12:30;;;;;;;5.33;1.70;;;29.40;43.40;;;;;;5073044;28;20512;-75
2022/08/29 11:14:59;;;;;;;2.30;2.10;;;29.40;43.20;;;;;;5072474;28;20564;-75
2022/08/29 11:17:31;;;;;;;1.87;1.77;;;29.50;43.20;;;;;;5072573;28;20450;-74
2022/08/29 11:20:02;;;;;;;3.03;1.90;;;29.50;43.20;;;;;;5073099;28;20439;-74
2022/08/29 11:22:33;;;;;;;2.40;2.20;;;29.50;43.30;;;;;;5073355;28;20465;-75
2022/08/29 11:25:04;;;;;;;2.27;1.80;;;29.50;43.10;;;;;;5072370;28;20432;-74
2022/08/29 11:27:36;;;;;;;1.80;1.70;;;29.50;43.10;;;;;;5072635;28;20444;-75
2022/08/29 11:30:05;;;;;;;2.47;2.00;;;29.60;43.10;;;;;;5072768;28;20449;-74
2022/08/29 11:32:38;;;;;;;2.80;1.70;;;29.60;43.10;;;;;;5072693;28;20465;-76
2022/08/29 11:35:09;;;;;;;2.30;1.60;;;29.70;43.10;;;;;;5068191;28;20469;-75
2022/08/29 11:38:19;;;;;;;4.13;1.80;;;29.70;42.90;;;;;;5072931;28;20452;-73
2022/08/29 11:40:57;;;;;;;3.67;1.70;;;29.70;42.90;;;;;;5034888;28;20536;-74
2022/08/29 11:43:46;;;;;;;1.93;1.83;;;29.80;42.90;;;;;;5071709;28;20426;-74
2022/08/29 11:46:14;;;;;;;2.13;1.80;;;30.00;42.70;;;;;;5072162;28;20549;-74
2022/08/29 11:48:45;;;;;;;6.40;2.10;;;30.10;42.20;;;;;;5072125;28;20453;-74
2022/08/29 11:51:33;;;;;;;2.10;2.00;;;30.10;42.10;;;;;;5072589;28;20497;-73
2022/08/29 11:54:40;;;;;;;2.60;2.00;;;30.00;42.30;;;;;;5072270;28;20493;-74
2022/08/29 11:57:45;;;;;;;2.10;1.90;;;30.00;42.40;;;;;;5071413;28;20472;-74
2022/08/29 12:00:51;;;;;;;2.80;2.37;;;30.10;42.40;;;;;;5067981;28;20439;-74
2022/08/29 12:03:44;;;;;;;1.87;1.70;;;30.10;42.00;;;;;;5071830;28;20486;-74
2022/08/29 12:06:19;;;;;;;2.03;1.73;;;30.30;42.10;;;;;;5057385;28;20468;-75
2022/08/29 12:08:48;;;;;;;2.30;1.33;;;30.40;41.90;;;;;;5071101;28;20487;-76
2022/08/29 12:11:17;;;;;;;2.60;1.43;;;30.60;41.40;;;;;;5071040;28;20529;-75
2022/08/29 12:14:02;;;;;;;1.77;1.20;;;30.60;41.00;;;;;;5070168;28;20448;-75
2022/08/29 12:16:48;;;;;;;2.00;1.53;;;30.50;41.30;;;;;;5070846;28;20472;-75
2022/08/29 12:19:53;;;;;;;1.40;1.40;;;30.40;41.50;;;;;;5070860;28;20456;-75
2022/08/29 12:23:00;;;;;;;2.53;1.47;;;30.40;41.50;;;;;;5071711;28;20533;-74
2022/08/29 12:25:40;;;;;;;2.63;1.73;;;30.60;41.20;;;;;;5067724;28;20525;-74
2022/08/29 12:28:29;;;;;;;2.83;1.50;;;30.70;41.10;;;;;;5071900;28;20505;-74
2022/08/29 12:31:06;;;;;;;1.50;1.40;;;30.90;40.60;;;;;;5072004;28;20453;-75
2022/08/29 12:33:39;;;;;;;1.63;1.10;;;30.90;40.70;;;;;;5067879;28;20522;-75
2022/08/29 12:36:18;;;;;;;1.60;1.50;;;31.10;40.40;;;;;;5071339;28;20481;-74
2022/08/29 12:38:52;;;;;;;1.30;1.30;;;31.20;40.10;;;;;;5072301;28;20445;-74
2022/08/29 12:41:31;;;;;;;1.47;1.33;;;31.20;40.00;;;;;;5071774;28;20449;-75
2022/08/29 12:44:00;;;;;;;1.10;1.10;;;31.00;40.00;;;;;;5071908;28;20532;-75
2022/08/29 12:46:33;;;;;;;1.60;1.50;;;31.00;40.50;;;;;;5071574;28;20422;-74
2022/08/29 12:49:05;;;;;;;1.40;1.40;;;31.10;40.20;;;;;;5066074;28;20525;-74
2022/08/29 12:51:39;;;;;;;1.40;1.30;;;31.20;40.00;;;;;;5069977;28;20436;-75
2022/08/29 12:54:07;;;;;;;1.20;1.20;;;31.20;40.00;;;;;;5071670;28;20422;-75
2022/08/29 12:56:35;;;;;;;1.70;1.60;;;31.20;39.80;;;;;;5071474;28;20450;-74
2022/08/29 12:59:03;;;;;;;1.67;1.33;;;31.00;40.00;;;;;;5071456;28;20433;-74
2022/08/29 13:01:33;;;;;;;1.83;1.37;;;31.00;40.10;;;;;;5071576;28;20465;-74
2022/08/29 13:04:02;;;;;;;1.50;1.40;;;31.00;40.20;;;;;;5071210;28;20816;-74
2022/08/29 13:06:30;;;;;;;1.23;1.13;;;30.80;40.40;;;;;;5069490;28;20952;-74